Time;durP1;ratioP1;P1;durP2;ratioP2;P2;SDS_P1;SDS_P2;PMS_P1;PMS_P2;Temp;Humidity;BMP_temperature;BMP_pressure;BME280_temperature;BME280_humidity;BME280_pressure;Samples;Min_cycle;Max_cycle;Signal;HPM_P1;HPM_P2
2022/08/19 00:01:57;;;;;;;6.25;4.75;;;16.50;99.90;;;;;;5060488;28;20051;-74
2022/08/19 00:04:33;;;;;;;6.85;4.55;;;16.50;99.90;;;;;;5060300;28;20106;-76
2022/08/19 00:06:59;;;;;;;5.05;4.63;;;17.20;99.90;;;;;;5052740;28;20099;-76
2022/08/19 00:09:25;;;;;;;5.10;4.70;;;16.50;99.90;;;;;;5059292;28;20037;-75
2022/08/19 00:11:53;;;;;;;7.05;5.00;;;16.40;99.90;;;;;;5064033;28;20082;-75
2022/08/19 00:14:20;;;;;;;6.63;5.35;;;16.80;99.90;;;;;;5064605;28;20039;-75
2022/08/19 00:16:47;;;;;;;9.05;5.03;;;16.40;99.90;;;;;;5061462;28;20105;-75
2022/08/19 00:19:13;;;;;;;5.70;5.05;;;16.40;99.90;;;;;;5061406;28;20079;-74
2022/08/19 00:21:39;;;;;;;5.50;5.00;;;17.60;99.90;;;;;;5062348;28;20048;-76
2022/08/19 00:24:10;;;;;;;5.10;4.60;;;16.40;99.90;;;;;;5063812;28;20045;-76
2022/08/19 00:26:36;;;;;;;5.78;5.18;;;16.40;99.90;;;;;;5063711;28;20036;-76
2022/08/19 00:29:04;;;;;;;6.10;4.90;;;16.30;99.90;;;;;;5060935;28;20389;-76
2022/08/19 00:31:30;;;;;;;5.68;5.15;;;16.90;99.90;;;;;;5060071;28;20044;-76
2022/08/19 00:33:56;;;;;;;6.10;4.88;;;17.10;99.90;;;;;;5052757;28;20032;-76
2022/08/19 00:36:22;;;;;;;5.25;4.72;;;16.40;99.90;;;;;;5059297;28;20091;-75
2022/08/19 00:38:49;;;;;;;6.43;5.03;;;16.30;99.90;;;;;;5063431;28;20397;-75
2022/08/19 00:41:20;;;;;;;10.38;5.05;;;16.30;99.90;;;;;;5064093;28;20048;-75
2022/08/19 00:44:04;;;;;;;8.23;6.20;;;16.90;99.90;;;;;;5061329;28;20041;-73
2022/08/19 00:46:32;;;;;;;6.40;5.65;;;16.20;99.90;;;;;;5060920;28;20088;-73
2022/08/19 00:49:02;;;;;;;6.55;5.40;;;16.20;99.90;;;;;;5053007;28;20044;-75
2022/08/19 00:51:32;;;;;;;6.35;5.40;;;16.30;99.90;;;;;;5059854;28;20409;-72
2022/08/19 00:53:59;;;;;;;6.00;5.18;;;17.10;99.90;;;;;;5052729;28;20114;-72
2022/08/19 00:56:26;;;;;;;6.15;5.30;;;16.20;99.90;;;;;;5059237;28;20539;-72
2022/08/19 00:58:54;;;;;;;6.45;5.45;;;16.10;99.90;;;;;;5062477;28;20087;-75
2022/08/19 01:01:20;;;;;;;5.70;5.13;;;16.00;99.90;;;;;;5063848;28;20492;-73
2022/08/19 01:03:45;;;;;;;10.43;5.70;;;16.00;99.90;;;;;;5061901;28;20079;-73
2022/08/19 01:06:11;;;;;;;6.63;5.22;;;16.00;99.90;;;;;;5059750;28;20040;-74
2022/08/19 01:08:37;;;;;;;5.63;5.07;;;16.70;99.90;;;;;;5060895;28;20040;-76
2022/08/19 01:11:03;;;;;;;7.25;6.15;;;16.00;99.90;;;;;;5063775;28;20108;-75
2022/08/19 01:13:33;;;;;;;5.93;5.43;;;15.90;99.90;;;;;;5063066;28;20043;-76
2022/08/19 01:16:05;;;;;;;6.72;5.57;;;16.50;99.90;;;;;;5051980;28;20496;-75
2022/08/19 01:18:35;;;;;;;7.78;5.40;;;15.80;99.90;;;;;;5059537;28;20049;-74
2022/08/19 01:21:06;;;;;;;5.28;4.88;;;15.80;99.90;;;;;;5052100;28;20488;-72
2022/08/19 01:23:44;;;;;;;7.28;4.90;;;15.80;99.90;;;;;;5059452;28;20064;-72
2022/08/19 01:26:16;;;;;;;6.72;5.70;;;15.80;99.90;;;;;;5052507;28;20036;-72
2022/08/19 01:28:44;;;;;;;6.07;5.47;;;15.80;99.90;;;;;;5061029;28;20053;-72
2022/08/19 01:31:19;;;;;;;5.82;5.25;;;16.60;99.90;;;;;;5063189;28;20032;-72
2022/08/19 01:33:46;;;;;;;5.07;4.57;;;15.70;99.90;;;;;;5060907;28;20388;-73
2022/08/19 01:36:16;;;;;;;7.50;5.55;;;16.00;99.90;;;;;;5065093;28;20040;-72
2022/08/19 01:38:43;;;;;;;5.88;4.88;;;15.90;99.90;;;;;;5060640;28;20035;-72
2022/08/19 01:41:10;;;;;;;8.60;4.85;;;15.80;99.90;;;;;;5057331;28;20072;-72
2022/08/19 01:43:36;;;;;;;5.13;4.63;;;15.60;99.90;;;;;;5059685;28;20040;-71
2022/08/19 01:46:03;;;;;;;5.13;4.68;;;16.70;99.90;;;;;;5063210;28;20043;-71
2022/08/19 01:48:34;;;;;;;5.82;5.32;;;15.60;99.90;;;;;;5062222;28;20072;-72
2022/08/19 01:51:00;;;;;;;6.57;5.85;;;16.80;99.90;;;;;;5051521;28;20434;-72
2022/08/19 01:53:26;;;;;;;6.72;5.90;;;15.60;99.90;;;;;;5058584;28;20035;-72
2022/08/19 01:55:51;;;;;;;6.32;5.75;;;15.60;99.90;;;;;;5061171;28;20447;-72
2022/08/19 01:58:22;;;;;;;6.18;5.70;;;15.60;99.90;;;;;;5063021;28;20476;-72
2022/08/19 02:00:48;;;;;;;6.15;5.75;;;15.50;99.90;;;;;;5060432;28;20051;-72
2022/08/19 02:03:14;;;;;;;7.03;6.40;;;15.50;99.90;;;;;;5058975;28;20045;-72
2022/08/19 02:05:40;;;;;;;7.13;5.45;;;15.50;99.90;;;;;;5059790;28;20041;-72
2022/08/19 02:08:07;;;;;;;6.68;6.18;;;15.60;99.90;;;;;;5062005;28;20128;-73
2022/08/19 02:10:33;;;;;;;7.63;6.60;;;15.50;99.90;;;;;;5062772;28;20044;-73
2022/08/19 02:12:58;;;;;;;8.10;7.40;;;15.50;99.90;;;;;;5059468;28;20037;-75
2022/08/19 02:15:25;;;;;;;7.07;6.47;;;15.50;99.90;;;;;;5058635;28;20378;-75
2022/08/19 02:17:51;;;;;;;7.93;7.10;;;16.50;99.90;;;;;;5060016;28;20087;-76
2022/08/19 02:20:17;;;;;;;9.55;7.55;;;15.50;99.90;;;;;;5062372;28;20044;-75
2022/08/19 02:22:43;;;;;;;8.75;7.38;;;15.50;99.90;;;;;;5060545;28;20052;-75
2022/08/19 02:25:13;;;;;;;9.80;7.88;;;16.10;99.90;;;;;;5059010;28;20082;-74
2022/08/19 02:27:40;;;;;;;8.00;6.65;;;15.40;99.90;;;;;;5059409;28;20045;-74
2022/08/19 02:30:08;;;;;;;7.57;6.82;;;15.40;99.90;;;;;;5060564;28;20122;-74
2022/08/19 02:32:34;;;;;;;7.10;6.53;;;15.40;99.90;;;;;;5062083;28;20037;-73
2022/08/19 02:34:59;;;;;;;7.45;6.75;;;15.40;99.90;;;;;;5059755;28;20041;-75
2022/08/19 02:40:09;;;;;;;6.88;5.40;;;15.40;99.90;;;;;;5051896;28;20044;-74
2022/08/19 02:42:35;;;;;;;6.65;6.05;;;15.40;99.90;;;;;;5058923;28;20452;-74
2022/08/19 02:45:01;;;;;;;7.03;6.32;;;16.00;99.90;;;;;;5061442;28;20097;-74
2022/08/19 02:47:27;;;;;;;8.30;6.78;;;15.60;99.90;;;;;;5062329;28;20119;-75
2022/08/19 02:49:52;;;;;;;7.15;6.60;;;15.30;99.90;;;;;;5058272;28;20121;-75
2022/08/19 02:52:18;;;;;;;10.27;6.53;;;16.60;99.90;;;;;;5057073;28;20102;-75
2022/08/19 02:54:46;;;;;;;6.60;6.00;;;15.30;99.90;;;;;;5059742;28;20444;-75
2022/08/19 02:57:12;;;;;;;6.65;6.15;;;16.00;99.90;;;;;;5061804;28;20052;-73
2022/08/19 02:59:37;;;;;;;6.70;6.00;;;15.30;99.90;;;;;;5061993;28;20462;-73
2022/08/19 03:02:03;;;;;;;6.45;5.43;;;15.30;99.90;;;;;;5058333;28;20041;-72
2022/08/19 03:04:29;;;;;;;7.07;6.47;;;15.30;99.90;;;;;;5040895;28;20052;-75
2022/08/19 03:06:55;;;;;;;7.55;6.53;;;15.30;99.90;;;;;;5063195;28;20037;-72
2022/08/19 03:09:20;;;;;;;6.97;6.28;;;15.50;99.90;;;;;;5065968;28;20518;-75
2022/08/19 03:11:47;;;;;;;6.85;6.15;;;15.20;99.90;;;;;;5064264;28;20070;-74
2022/08/19 03:14:13;;;;;;;6.97;6.28;;;15.20;99.90;;;;;;5062349;28;20424;-75
2022/08/19 03:16:52;;;;;;;6.00;5.32;;;15.20;99.90;;;;;;5044566;28;20291;-73
2022/08/19 03:19:20;;;;;;;7.75;6.13;;;15.40;99.90;;;;;;5055143;28;20083;-72
2022/08/19 03:21:47;;;;;;;6.30;5.88;;;15.20;99.90;;;;;;5062586;28;20405;-74
2022/08/19 03:24:14;;;;;;;7.20;6.20;;;15.10;99.90;;;;;;5064160;28;20049;-75
2022/08/19 03:26:43;;;;;;;6.97;6.28;;;15.30;99.90;;;;;;5065121;28;20045;-72
2022/08/19 03:29:10;;;;;;;5.88;5.38;;;15.20;99.90;;;;;;5054283;28;20045;-76
2022/08/19 03:31:37;;;;;;;6.85;6.15;;;15.10;99.90;;;;;;5061919;28;20049;-76
2022/08/19 03:34:03;;;;;;;6.03;5.40;;;16.00;99.90;;;;;;5065147;28;20037;-75
2022/08/19 03:36:29;;;;;;;6.63;5.88;;;15.20;99.90;;;;;;5064122;28;20067;-72
2022/08/19 03:38:58;;;;;;;7.20;5.88;;;15.00;99.90;;;;;;5062361;28;20048;-75
2022/08/19 03:41:27;;;;;;;6.28;5.68;;;15.60;99.90;;;;;;5060026;28;20503;-74
2022/08/19 03:43:53;;;;;;;6.93;6.22;;;15.10;99.90;;;;;;5063483;28;20040;-75
2022/08/19 03:46:26;;;;;;;6.93;6.25;;;15.10;99.90;;;;;;5063502;28;20112;-74
2022/08/19 03:48:54;;;;;;;7.28;6.45;;;15.10;99.90;;;;;;5064113;28;20049;-72
2022/08/19 03:51:28;;;;;;;7.32;6.55;;;15.10;99.90;;;;;;5060587;28;20059;-74
2022/08/19 03:53:55;;;;;;;8.02;7.22;;;16.00;99.90;;;;;;5061923;28;20485;-72
2022/08/19 03:56:22;;;;;;;7.32;6.18;;;16.00;99.90;;;;;;5065344;28;20055;-73
2022/08/19 03:58:48;;;;;;;7.18;5.95;;;14.60;99.90;;;;;;5064432;28;20048;-76
2022/08/19 04:01:17;;;;;;;5.93;5.43;;;15.00;99.90;;;;;;5060969;28;20048;-76
2022/08/19 04:03:43;;;;;;;6.38;5.85;;;15.00;99.90;;;;;;5061645;28;20045;-74
2022/08/19 04:06:12;;;;;;;6.55;5.95;;;16.30;99.90;;;;;;5053443;28;20036;-72
2022/08/19 04:08:42;;;;;;;6.45;5.85;;;15.00;99.90;;;;;;5061113;28;20393;-73
2022/08/19 04:11:14;;;;;;;6.38;5.65;;;15.00;99.90;;;;;;5064626;28;20044;-72
2022/08/19 04:13:40;;;;;;;6.40;5.72;;;15.00;99.90;;;;;;5065041;28;20033;-71
2022/08/19 04:16:06;;;;;;;7.90;6.53;;;15.00;99.90;;;;;;5059616;28;20045;-73
2022/08/19 04:18:35;;;;;;;8.60;6.43;;;15.40;99.90;;;;;;5060084;28;20084;-72
2022/08/19 04:21:02;;;;;;;8.60;6.50;;;15.00;99.90;;;;;;5063349;28;20059;-75
2022/08/19 04:23:30;;;;;;;8.85;6.47;;;15.80;99.90;;;;;;5063886;28;20064;-73
2022/08/19 04:25:56;;;;;;;6.95;6.35;;;15.00;99.90;;;;;;5061896;28;20041;-75
2022/08/19 04:28:24;;;;;;;7.57;6.32;;;15.60;99.90;;;;;;5059378;28;20044;-74
2022/08/19 04:30:52;;;;;;;8.23;7.35;;;15.00;99.90;;;;;;5061427;28;20107;-73
2022/08/19 04:33:19;;;;;;;7.38;6.63;;;15.00;99.90;;;;;;5064694;28;20074;-75
2022/08/19 04:35:48;;;;;;;7.28;6.65;;;16.10;99.90;;;;;;5062516;28;20133;-75
2022/08/19 04:38:15;;;;;;;6.53;5.97;;;15.00;99.90;;;;;;5051996;28;20120;-73
2022/08/19 04:43:28;;;;;;;8.27;7.38;;;15.00;99.90;;;;;;5053034;28;20068;-73
2022/08/19 04:45:54;;;;;;;9.60;7.75;;;14.90;99.90;;;;;;5061761;28;20397;-75
2022/08/19 04:48:25;;;;;;;7.97;7.28;;;15.00;99.90;;;;;;5063189;28;20518;-72
2022/08/19 04:50:57;;;;;;;7.85;7.15;;;15.00;99.90;;;;;;5062801;28;20460;-75
2022/08/19 04:53:28;;;;;;;7.65;6.95;;;15.10;99.90;;;;;;5061029;28;20132;-72
2022/08/19 04:55:58;;;;;;;6.90;6.30;;;15.00;99.90;;;;;;5061399;28;20485;-73
2022/08/19 04:58:26;;;;;;;7.57;6.82;;;15.00;99.90;;;;;;5063346;28;20041;-73
2022/08/19 05:00:52;;;;;;;7.80;7.05;;;15.00;99.90;;;;;;5063548;28;20068;-73
2022/08/19 05:03:18;;;;;;;6.68;6.10;;;15.00;99.90;;;;;;5059440;28;20487;-72
2022/08/19 05:05:45;;;;;;;7.22;6.57;;;15.60;99.90;;;;;;5058799;28;20044;-73
2022/08/19 05:08:12;;;;;;;7.25;6.55;;;15.00;99.90;;;;;;5063439;28;20045;-73
2022/08/19 05:10:39;;;;;;;7.35;6.70;;;15.60;99.90;;;;;;5061999;28;20060;-73
2022/08/19 05:13:05;;;;;;;8.45;7.15;;;16.10;99.90;;;;;;5061351;28;20086;-72
2022/08/19 05:15:31;;;;;;;8.32;7.53;;;15.10;99.90;;;;;;5059067;28;20041;-74
2022/08/19 05:23:25;;;;;;;8.65;7.63;;;15.10;99.90;;;;;;5053003;28;20060;-74
2022/08/19 05:25:51;;;;;;;10.82;8.90;;;15.10;99.90;;;;;;5059763;28;20041;-75
2022/08/19 05:28:19;;;;;;;8.60;7.70;;;15.10;99.90;;;;;;5061308;28;20492;-76
2022/08/19 05:30:45;;;;;;;8.90;8.00;;;15.50;99.90;;;;;;5063174;28;20068;-74
2022/08/19 05:33:11;;;;;;;10.10;8.77;;;15.10;99.90;;;;;;5058876;28;20071;-73
2022/08/19 05:35:40;;;;;;;11.70;10.50;;;15.20;99.90;;;;;;5059960;28;20056;-73
2022/08/19 05:38:08;;;;;;;10.82;9.82;;;15.20;99.90;;;;;;5061843;28;20045;-73
2022/08/19 05:40:38;;;;;;;12.18;10.88;;;14.70;99.90;;;;;;5062656;28;20045;-72
2022/08/19 05:43:06;;;;;;;12.30;10.65;;;15.30;99.90;;;;;;5061410;28;20131;-72
2022/08/19 05:45:32;;;;;;;12.05;10.85;;;15.30;99.90;;;;;;5059692;28;20045;-72
2022/08/19 05:47:58;;;;;;;12.77;11.45;;;15.30;99.90;;;;;;5058436;28;20059;-73
2022/08/19 05:50:26;;;;;;;13.80;12.35;;;15.30;99.90;;;;;;5063086;28;20033;-73
2022/08/19 05:52:52;;;;;;;13.70;12.38;;;15.40;99.90;;;;;;5044055;28;20459;-73
2022/08/19 05:55:19;;;;;;;13.65;12.25;;;16.70;99.90;;;;;;5058575;28;20048;-73
2022/08/19 05:57:46;;;;;;;17.27;13.65;;;15.40;99.90;;;;;;5059624;28;20048;-75
2022/08/19 06:00:12;;;;;;;13.25;11.80;;;16.30;99.90;;;;;;5061134;28;20052;-72
2022/08/19 06:02:38;;;;;;;15.27;11.63;;;15.50;99.90;;;;;;5062602;28;20037;-72
2022/08/19 06:05:08;;;;;;;11.20;9.90;;;15.50;99.90;;;;;;5060225;28;20352;-72
2022/08/19 06:07:38;;;;;;;12.77;10.30;;;15.50;99.90;;;;;;5058693;28;20044;-72
2022/08/19 06:10:05;;;;;;;15.32;11.57;;;14.60;99.90;;;;;;5060396;28;20489;-71
2022/08/19 06:12:34;;;;;;;12.38;11.15;;;15.70;99.90;;;;;;5062691;28;20056;-73
2022/08/19 06:15:04;;;;;;;13.88;10.20;;;16.80;99.90;;;;;;5060018;28;20044;-71
2022/08/19 06:17:30;;;;;;;15.15;13.32;;;16.40;99.90;;;;;;5059337;28;20036;-72
2022/08/19 06:19:56;;;;;;;13.85;12.45;;;15.80;99.90;;;;;;5059327;28;20037;-72
2022/08/19 06:22:22;;;;;;;15.75;14.13;;;17.10;99.90;;;;;;5061317;28;20197;-72
2022/08/19 06:24:52;;;;;;;16.05;14.00;;;15.90;99.90;;;;;;5061740;28;20040;-72
2022/08/19 06:27:18;;;;;;;14.63;13.15;;;16.00;99.90;;;;;;5059565;28;20404;-72
2022/08/19 06:29:46;;;;;;;16.98;13.30;;;16.10;99.90;;;;;;5058493;28;20357;-72
2022/08/19 06:32:16;;;;;;;15.50;13.88;;;16.10;99.90;;;;;;5059731;28;20128;-72
2022/08/19 06:34:42;;;;;;;16.35;13.02;;;16.20;99.90;;;;;;5062524;28;20040;-72
2022/08/19 06:37:08;;;;;;;16.15;13.68;;;16.30;99.90;;;;;;5059172;28;20067;-72
2022/08/19 06:39:38;;;;;;;13.30;11.80;;;16.30;99.90;;;;;;5061672;28;20162;-72
2022/08/19 06:42:06;;;;;;;15.27;13.60;;;16.40;99.90;;;;;;5063182;28;20041;-72
2022/08/19 06:44:35;;;;;;;17.83;13.38;;;16.40;99.90;;;;;;5066674;28;20123;-73
2022/08/19 06:47:03;;;;;;;16.50;12.73;;;16.50;99.90;;;;;;5066067;28;20124;-72
2022/08/19 06:49:30;;;;;;;14.38;12.93;;;16.60;99.90;;;;;;5061151;28;20087;-72
2022/08/19 06:51:58;;;;;;;17.33;14.10;;;16.60;99.90;;;;;;5063020;28;20048;-73
2022/08/19 06:54:25;;;;;;;14.65;13.18;;;17.00;99.90;;;;;;5055063;28;20044;-74
2022/08/19 06:56:51;;;;;;;15.65;12.57;;;16.80;99.90;;;;;;5062292;28;20615;-74
2022/08/19 06:59:22;;;;;;;14.13;12.75;;;16.90;99.90;;;;;;5065400;28;20037;-74
2022/08/19 07:01:53;;;;;;;14.23;12.75;;;17.00;99.90;;;;;;5065974;28;20381;-72
2022/08/19 07:04:28;;;;;;;15.80;12.82;;;17.10;99.90;;;;;;5062718;28;20056;-75
2022/08/19 07:07:00;;;;;;;16.23;12.88;;;17.20;99.90;;;;;;5061648;28;20048;-75
2022/08/19 07:09:26;;;;;;;15.95;14.25;;;17.30;99.90;;;;;;5054735;28;20076;-75
2022/08/19 07:11:53;;;;;;;19.70;13.38;;;17.30;99.90;;;;;;5061840;28;20048;-73
2022/08/19 07:14:24;;;;;;;14.52;13.00;;;17.40;99.90;;;;;;5065145;28;20227;-72
2022/08/19 07:16:54;;;;;;;14.77;12.60;;;17.50;99.90;;;;;;5066025;28;20044;-72
2022/08/19 07:19:22;;;;;;;16.02;12.98;;;17.50;99.90;;;;;;5062603;28;20136;-73
2022/08/19 07:21:52;;;;;;;17.27;13.63;;;17.60;99.90;;;;;;5062345;28;20048;-74
2022/08/19 07:24:19;;;;;;;15.82;14.18;;;17.80;99.90;;;;;;5064028;28;20053;-72
2022/08/19 07:26:46;;;;;;;15.13;13.50;;;18.20;99.90;;;;;;5065996;28;20052;-73
2022/08/19 07:29:12;;;;;;;14.05;12.65;;;17.80;99.90;;;;;;5062758;28;20044;-74
2022/08/19 07:31:37;;;;;;;16.00;12.85;;;17.80;99.90;;;;;;5060557;28;20045;-74
2022/08/19 07:34:08;;;;;;;14.75;13.00;;;17.90;99.90;;;;;;5062540;28;20495;-73
2022/08/19 07:36:37;;;;;;;19.30;14.30;;;17.90;99.90;;;;;;5065140;28;20052;-73
2022/08/19 07:39:07;;;;;;;14.82;13.13;;;18.00;99.90;;;;;;5065610;28;20041;-73
2022/08/19 07:41:34;;;;;;;14.75;13.10;;;18.10;99.90;;;;;;5061898;28;20056;-73
2022/08/19 07:44:03;;;;;;;15.00;13.50;;;18.20;99.90;;;;;;5061355;28;20045;-75
2022/08/19 07:46:31;;;;;;;13.75;12.45;;;18.30;99.90;;;;;;5053940;28;20044;-73
2022/08/19 07:48:57;;;;;;;14.75;13.15;;;18.40;99.90;;;;;;5062183;28;20045;-72
2022/08/19 07:51:23;;;;;;;13.88;12.40;;;18.50;99.90;;;;;;5063123;28;20040;-72
2022/08/19 07:53:50;;;;;;;14.82;12.88;;;18.60;99.90;;;;;;5065304;28;20094;-71
2022/08/19 07:56:17;;;;;;;13.48;12.10;;;19.10;99.90;;;;;;5062403;28;20044;-71
2022/08/19 07:58:45;;;;;;;15.07;13.07;;;18.70;99.90;;;;;;5061062;28;20037;-72
2022/08/19 08:01:13;;;;;;;14.93;12.18;;;18.80;99.90;;;;;;5062376;28;20045;-71
2022/08/19 08:09:15;;;;;;;13.18;11.13;;;19.00;99.90;;;;;;5062019;28;20529;-71
2022/08/19 08:11:48;;;;;;;13.90;10.85;;;19.10;99.90;;;;;;5064190;28;20536;-72
2022/08/19 08:14:23;;;;;;;12.65;11.45;;;19.70;99.90;;;;;;5063889;28;20041;-71
2022/08/19 08:16:50;;;;;;;14.95;12.20;;;19.30;99.90;;;;;;5061609;28;20055;-71
2022/08/19 08:19:17;;;;;;;11.82;10.63;;;19.40;99.90;;;;;;5060794;28;20069;-72
2022/08/19 08:21:43;;;;;;;11.95;10.82;;;19.90;99.90;;;;;;5064621;28;20043;-73
2022/08/19 08:24:10;;;;;;;12.45;11.35;;;19.60;99.90;;;;;;5064042;28;20430;-74
2022/08/19 08:26:35;;;;;;;14.48;12.73;;;19.70;99.90;;;;;;5042884;28;20051;-71
2022/08/19 08:29:01;;;;;;;12.43;11.23;;;20.10;99.90;;;;;;5061139;28;20468;-75
2022/08/19 08:31:27;;;;;;;14.25;12.75;;;19.70;99.90;;;;;;5062302;28;20053;-72
2022/08/19 08:33:53;;;;;;;13.20;11.90;;;19.90;99.90;;;;;;5063861;28;20047;-72
2022/08/19 08:36:19;;;;;;;13.30;12.00;;;20.40;99.90;;;;;;5063129;28;20044;-72
2022/08/19 08:38:45;;;;;;;13.93;12.52;;;20.00;99.90;;;;;;5061555;28;20040;-72
2022/08/19 08:41:21;;;;;;;13.07;11.77;;;20.00;99.90;;;;;;5060509;28;20052;-72
2022/08/19 08:43:51;;;;;;;12.88;11.68;;;20.10;99.90;;;;;;5064451;28;20152;-72
2022/08/19 08:46:33;;;;;;;12.80;11.52;;;20.30;99.90;;;;;;5063573;28;20090;-71
2022/08/19 08:49:28;;;;;;;13.20;11.93;;;20.30;99.90;;;;;;5060274;28;20041;-71
2022/08/19 08:52:11;;;;;;;12.38;11.10;;;20.40;99.90;;;;;;5055039;28;20425;-73
2022/08/19 08:54:45;;;;;;;14.13;12.65;;;20.50;99.90;;;;;;5052264;28;20049;-73
2022/08/19 08:57:17;;;;;;;16.10;14.57;;;20.70;99.90;;;;;;5043196;28;20044;-73
2022/08/19 08:59:50;;;;;;;13.77;12.57;;;20.80;99.90;;;;;;5062691;28;20361;-73
2022/08/19 09:02:16;;;;;;;13.75;12.55;;;20.80;99.90;;;;;;5061355;28;20609;-73
2022/08/19 09:04:41;;;;;;;15.30;13.80;;;20.80;99.90;;;;;;5059485;28;20124;-74
2022/08/19 09:07:26;;;;;;;14.13;12.50;;;20.80;99.90;;;;;;5059482;28;20047;-75
2022/08/19 09:09:54;;;;;;;;;;;20.90;99.90;;;;;;5054043;28;20041;-73
2022/08/19 09:12:34;;;;;;;14.85;13.38;;;21.10;99.90;;;;;;5061182;28;20288;-72
2022/08/19 09:15:07;;;;;;;16.23;14.57;;;21.00;99.90;;;;;;5063327;28;20495;-74
2022/08/19 09:17:33;;;;;;;15.27;13.77;;;21.10;99.90;;;;;;5061057;28;20142;-73
2022/08/19 09:20:23;;;;;;;15.50;14.05;;;21.20;99.90;;;;;;5060348;28;20480;-75
2022/08/19 09:22:49;;;;;;;14.05;12.55;;;21.30;99.90;;;;;;5052614;28;20504;-73
2022/08/19 09:25:18;;;;;;;14.85;13.45;;;21.40;99.90;;;;;;5060360;28;20055;-76
2022/08/19 09:27:43;;;;;;;17.38;15.13;;;21.40;99.90;;;;;;5062611;28;20181;-75
2022/08/19 09:30:14;;;;;;;15.77;14.35;;;21.50;99.90;;;;;;5062803;28;20512;-74
2022/08/19 09:32:42;;;;;;;15.80;14.27;;;21.50;99.90;;;;;;5050231;28;20036;-73
2022/08/19 09:35:08;;;;;;;13.18;11.95;;;21.60;99.90;;;;;;5058756;28;20037;-74
2022/08/19 09:37:34;;;;;;;13.35;12.18;;;21.60;99.90;;;;;;5060310;28;20497;-75
2022/08/19 09:39:59;;;;;;;14.43;12.48;;;21.90;99.90;;;;;;5063532;28;20040;-74
2022/08/19 09:42:25;;;;;;;15.10;13.55;;;21.70;99.90;;;;;;5061723;28;20409;-74
2022/08/19 09:44:50;;;;;;;14.75;13.23;;;21.90;99.90;;;;;;5058193;28;20080;-74
2022/08/19 09:47:16;;;;;;;13.82;12.45;;;21.90;99.90;;;;;;5058536;28;20453;-72
2022/08/19 09:49:42;;;;;;;11.52;10.50;;;22.30;99.90;;;;;;5050168;28;20045;-73
2022/08/19 09:52:11;;;;;;;13.77;11.02;;;22.00;99.90;;;;;;5058930;28;20048;-73
2022/08/19 09:54:38;;;;;;;12.85;11.55;;;22.90;99.90;;;;;;5062427;28;20127;-73
2022/08/19 09:57:04;;;;;;;13.35;11.90;;;22.30;99.90;;;;;;5062638;28;20036;-72
2022/08/19 09:59:30;;;;;;;13.45;11.63;;;22.20;99.90;;;;;;5061611;28;20135;-73
2022/08/19 10:01:56;;;;;;;12.25;11.25;;;22.20;99.90;;;;;;5059465;28;20433;-73
2022/08/19 10:04:22;;;;;;;12.07;11.00;;;22.20;99.90;;;;;;5059227;28;20051;-73
2022/08/19 10:06:49;;;;;;;10.63;9.63;;;22.20;99.90;;;;;;5062842;28;20150;-72
2022/08/19 10:09:17;;;;;;;14.30;12.98;;;22.30;99.90;;;;;;5062706;28;20040;-73
2022/08/19 10:11:49;;;;;;;13.05;11.85;;;23.20;99.90;;;;;;5058911;28;20037;-72
2022/08/19 10:14:16;;;;;;;13.13;11.77;;;22.40;99.90;;;;;;5059215;28;20045;-72
2022/08/19 10:16:42;;;;;;;14.77;13.05;;;22.50;99.90;;;;;;5062463;28;20044;-72
2022/08/19 10:19:09;;;;;;;12.77;11.48;;;23.00;99.90;;;;;;5061949;28;20495;-72
2022/08/19 10:21:35;;;;;;;11.45;10.45;;;22.60;99.90;;;;;;5060357;28;20438;-72
2022/08/19 10:24:05;;;;;;;14.35;13.05;;;22.70;99.90;;;;;;5057820;28;20142;-76
2022/08/19 10:26:34;;;;;;;14.77;13.38;;;22.80;99.90;;;;;;5059990;28;20044;-75
2022/08/19 10:29:00;;;;;;;15.10;13.70;;;23.00;99.90;;;;;;5062861;28;20484;-74
2022/08/19 10:31:30;;;;;;;15.18;13.77;;;23.00;99.90;;;;;;5061754;28;20078;-76
2022/08/19 10:33:59;;;;;;;14.45;13.07;;;23.10;99.90;;;;;;5058638;28;20037;-75
2022/08/19 10:36:28;;;;;;;11.10;10.10;;;23.10;99.90;;;;;;5059332;28;20046;-72
2022/08/19 10:38:58;;;;;;;12.30;10.95;;;23.10;99.90;;;;;;5062527;28;20076;-72
2022/08/19 10:41:26;;;;;;;13.40;12.18;;;23.30;99.90;;;;;;5061968;28;20042;-72
2022/08/19 10:43:54;;;;;;;13.95;12.63;;;23.60;99.90;;;;;;5059115;28;20044;-73
2022/08/19 10:46:22;;;;;;;15.68;14.02;;;23.90;99.90;;;;;;5058505;28;20108;-72
2022/08/19 10:48:49;;;;;;;17.40;15.75;;;23.50;99.90;;;;;;5062225;28;20479;-73
2022/08/19 10:53:59;;;;;;;16.40;14.73;;;23.60;99.90;;;;;;5051748;28;20049;-72
2022/08/19 10:59:13;;;;;;;17.20;15.60;;;23.50;99.90;;;;;;5062408;28;20119;-73
2022/08/19 11:01:39;;;;;;;16.95;15.32;;;23.60;99.90;;;;;;5059519;28;20036;-72
2022/08/19 11:04:08;;;;;;;13.93;12.52;;;23.70;99.90;;;;;;5057791;28;20079;-72
2022/08/19 11:06:34;;;;;;;11.68;10.68;;;23.70;99.90;;;;;;5060220;28;20037;-72
2022/08/19 11:09:00;;;;;;;12.65;11.18;;;23.80;99.90;;;;;;5061591;28;20098;-73
2022/08/19 11:11:26;;;;;;;12.18;11.07;;;23.80;99.90;;;;;;5062102;28;20521;-72
2022/08/19 11:13:52;;;;;;;14.40;12.60;;;24.00;99.90;;;;;;5050659;28;20196;-74
2022/08/19 11:16:21;;;;;;;11.85;10.55;;;24.10;99.90;;;;;;5057973;28;20049;-73
2022/08/19 11:18:50;;;;;;;9.68;8.63;;;24.20;99.90;;;;;;5061605;28;20045;-74
2022/08/19 11:21:19;;;;;;;13.25;8.70;;;24.30;99.90;;;;;;5060629;28;20369;-74
2022/08/19 11:23:50;;;;;;;15.02;12.15;;;24.40;99.90;;;;;;5058778;28;20075;-73
2022/08/19 11:26:17;;;;;;;11.13;9.82;;;24.60;99.90;;;;;;5060389;28;20369;-73
2022/08/19 11:28:43;;;;;;;11.13;9.93;;;24.70;99.90;;;;;;5062456;28;20072;-74
2022/08/19 11:31:14;;;;;;;9.93;8.90;;;24.70;99.90;;;;;;5064234;28;20516;-74
2022/08/19 11:33:40;;;;;;;9.55;7.05;;;24.80;99.90;;;;;;5064120;28;20044;-73
2022/08/19 11:36:07;;;;;;;11.25;10.15;;;24.80;99.90;;;;;;5061720;28;20068;-74
2022/08/19 11:38:35;;;;;;;8.90;7.88;;;24.60;99.90;;;;;;5062594;28;20408;-73
2022/08/19 11:41:04;;;;;;;8.27;7.57;;;24.50;99.90;;;;;;5065468;28;20041;-73
2022/08/19 11:43:30;;;;;;;7.93;7.20;;;24.50;99.90;;;;;;5064692;28;20072;-74
2022/08/19 11:45:56;;;;;;;12.43;10.18;;;24.40;99.90;;;;;;5053783;28;20532;-75
2022/08/19 11:48:22;;;;;;;11.82;8.73;;;24.20;99.90;;;;;;5062120;28;20033;-73
2022/08/19 11:50:52;;;;;;;10.43;8.52;;;24.20;99.90;;;;;;5063432;28;20083;-73
2022/08/19 11:53:19;;;;;;;8.50;7.70;;;24.20;99.90;;;;;;5065727;28;20044;-73
2022/08/19 11:55:47;;;;;;;9.70;8.82;;;24.00;99.90;;;;;;5063246;28;20036;-73
2022/08/19 11:58:15;;;;;;;12.38;8.27;;;24.00;99.90;;;;;;5061110;28;20133;-73
2022/08/19 12:00:41;;;;;;;8.60;6.97;;;23.90;99.90;;;;;;5062927;28;20048;-73
2022/08/19 12:03:07;;;;;;;9.43;7.47;;;23.90;99.90;;;;;;5063884;28;20047;-73
2022/08/19 12:05:33;;;;;;;8.05;6.82;;;23.80;99.90;;;;;;5064488;28;20047;-73
2022/08/19 12:07:59;;;;;;;8.73;7.93;;;23.80;99.90;;;;;;5061838;28;20037;-73
2022/08/19 12:10:24;;;;;;;9.10;8.20;;;23.80;99.90;;;;;;5061266;28;20044;-75
2022/08/19 12:12:50;;;;;;;9.90;8.48;;;23.90;99.90;;;;;;5063027;28;20481;-75
2022/08/19 12:15:16;;;;;;;9.40;8.07;;;24.10;99.90;;;;;;5064920;28;20083;-74
2022/08/19 12:17:42;;;;;;;13.18;9.20;;;24.30;99.90;;;;;;5063098;28;20045;-75
2022/08/19 12:20:10;;;;;;;11.30;9.98;;;24.40;99.90;;;;;;5061197;28;20095;-73
2022/08/19 12:22:41;;;;;;;12.63;8.65;;;24.30;99.90;;;;;;5061308;28;20049;-74
2022/08/19 12:25:08;;;;;;;12.13;7.97;;;24.30;99.90;;;;;;5064111;28;20053;-74
2022/08/19 12:27:35;;;;;;;11.68;7.55;;;24.30;99.90;;;;;;5063435;28;20041;-73
2022/08/19 12:30:01;;;;;;;12.98;7.95;;;24.30;99.90;;;;;;5052800;28;20469;-73
2022/08/19 12:32:28;;;;;;;10.73;9.60;;;24.20;99.90;;;;;;5060771;28;20040;-74
2022/08/19 12:34:54;;;;;;;9.85;8.85;;;24.20;99.90;;;;;;5063452;28;20485;-73
2022/08/19 12:37:20;;;;;;;11.60;9.23;;;24.20;99.90;;;;;;5063193;28;20048;-73
2022/08/19 12:39:46;;;;;;;10.68;8.98;;;24.20;99.90;;;;;;5062448;28;20071;-73
2022/08/19 12:42:14;;;;;;;8.93;7.90;;;24.20;99.90;;;;;;5060862;28;20503;-75
2022/08/19 12:44:41;;;;;;;8.75;7.28;;;24.20;99.90;;;;;;5061205;28;20048;-73
2022/08/19 12:47:08;;;;;;;11.15;7.50;;;24.10;99.90;;;;;;5063840;28;20037;-76
2022/08/19 12:49:36;;;;;;;7.82;7.03;;;24.10;99.90;;;;;;5064510;28;20056;-75
2022/08/19 12:52:04;;;;;;;12.85;8.90;;;24.10;99.90;;;;;;5060746;28;20101;-75
2022/08/19 12:54:30;;;;;;;12.77;8.43;;;24.00;99.90;;;;;;5058944;28;20033;-75
2022/08/19 12:56:56;;;;;;;12.23;9.10;;;23.90;99.90;;;;;;5062947;28;20044;-74
2022/08/19 12:59:22;;;;;;;16.73;11.05;;;24.00;99.90;;;;;;5064022;28;20454;-74
2022/08/19 13:01:48;;;;;;;15.55;12.18;;;24.00;99.90;;;;;;5061915;28;20052;-74
2022/08/19 13:04:14;;;;;;;14.48;12.98;;;23.90;99.90;;;;;;5060413;28;20056;-74